createdAt,value
2019-03-01T00:02:07.332Z,100666.88
2019-03-01T00:04:52.656Z,100670.05
2019-03-01T00:07:57.550Z,100663.91
2019-03-01T00:11:20.479Z,100663.81
2019-03-01T00:14:18.975Z,100659.89
2019-03-01T00:17:23.953Z,100657.01
2019-03-01T00:20:40.749Z,100648.55
2019-03-01T00:23:26.211Z,100650.77
2019-03-01T00:26:37.013Z,100646.05
2019-03-01T00:30:03.393Z,100643.16
2019-03-01T00:32:53.671Z,100638.78
2019-03-01T00:36:09.110Z,100630.58
2019-03-01T00:38:54.253Z,100637.20
2019-03-01T00:41:38.434Z,100635.62
2019-03-01T00:44:48.364Z,100623.60
2019-03-01T00:47:18.418Z,100628.53
2019-03-01T00:49:48.377Z,100631.03
2019-03-01T00:52:18.077Z,100625.47
2019-03-01T00:54:47.822Z,100619.97
2019-03-01T00:57:17.502Z,100621.56
2019-03-01T00:59:47.284Z,100619.97
2019-03-01T01:02:17.040Z,100618.21
2019-03-01T01:04:46.836Z,100617.75
2019-03-01T01:07:16.546Z,100612.89
2019-03-01T01:09:46.239Z,100611.80
2019-03-01T01:12:16.551Z,100608.45
2019-03-01T01:14:46.472Z,100611.98
2019-03-01T01:17:16.483Z,100602.85
2019-03-01T01:19:46.278Z,100597.56
2019-03-01T01:22:16.229Z,100599.33
2019-03-01T01:24:45.913Z,100594.12
2019-03-01T01:27:15.668Z,100590.66
2019-03-01T01:29:45.998Z,100594.58
2019-03-01T01:32:15.704Z,100587.32
2019-03-01T01:34:45.394Z,100580.34
2019-03-01T01:37:15.330Z,100570.94
2019-03-01T01:39:45.010Z,100570.69
2019-03-01T01:42:14.693Z,100571.05
2019-03-01T01:44:44.773Z,100564.81
2019-03-01T01:47:14.468Z,100568.89
2019-03-01T01:49:44.145Z,100567.59
2019-03-01T01:52:14.951Z,100569.74
2019-03-01T01:54:44.675Z,100561.57
2019-03-01T01:57:14.504Z,100566.78
2019-03-01T01:59:45.466Z,100562.87
2019-03-01T02:02:15.239Z,100559.88
2019-03-01T02:04:45.161Z,100563.13
2019-03-01T02:07:14.834Z,100566.67
2019-03-01T02:09:44.954Z,100569.84
2019-03-01T02:12:15.904Z,100573.66
2019-03-01T02:14:45.670Z,100570.02
2019-03-01T02:17:15.418Z,100569.36
2019-03-01T02:19:45.254Z,100568.69
2019-03-01T02:22:15.093Z,100574.84
2019-03-01T02:24:44.820Z,100580.41
2019-03-01T02:27:21.894Z,100579.95
2019-03-01T02:29:51.729Z,100577.17
2019-03-01T02:32:59.902Z,100577.17
2019-03-01T02:35:29.666Z,100576.22
2019-03-01T02:37:59.410Z,100577.34
2019-03-01T02:40:29.639Z,100575.48
2019-03-01T02:42:59.381Z,100575.37
2019-03-01T02:45:29.073Z,100570.27
2019-03-01T02:47:58.756Z,100576.22
2019-03-01T02:50:28.510Z,100570.51
2019-03-01T02:52:59.238Z,100566.14
2019-03-01T02:55:29.252Z,100567.44
2019-03-01T02:57:58.929Z,100563.91
2019-03-01T03:00:28.904Z,100566.14
2019-03-01T03:02:58.649Z,100561.48
2019-03-01T03:05:28.389Z,100563.53
2019-03-01T03:07:59.998Z,100565.22
2019-03-01T03:10:29.968Z,100559.52
2019-03-01T03:13:02.026Z,100557.23
2019-03-01T03:15:34.267Z,100555.92
2019-03-01T03:18:04.083Z,100552.36
2019-03-01T03:20:33.988Z,100547.89
2019-03-01T03:23:03.758Z,100544.36
2019-03-01T03:25:33.423Z,100540.45
2019-03-01T03:28:03.509Z,100539.79
2019-03-01T03:30:33.347Z,100535.87
2019-03-01T03:33:03.635Z,100536.37
2019-03-01T03:35:33.352Z,100532.29
2019-03-01T03:38:03.115Z,100532.02
2019-03-01T03:40:32.918Z,100533.03
2019-03-01T03:43:02.674Z,100529.34
2019-03-01T03:45:32.445Z,100536.95
2019-03-01T03:48:02.137Z,100539.72
2019-03-01T03:50:31.915Z,100537.86
2019-03-01T03:53:01.634Z,100543.28
2019-03-01T03:55:31.487Z,100540.75
2019-03-01T03:58:01.501Z,100545.39
2019-03-01T04:00:31.428Z,100557.97
2019-03-01T04:03:01.567Z,100551.34
2019-03-01T04:05:31.340Z,100556.48
2019-03-01T04:08:01.024Z,100550.89
2019-03-01T04:10:30.726Z,100551.73
2019-03-01T04:13:01.839Z,100557.80
2019-03-01T04:15:31.756Z,100554.12
2019-03-01T04:18:01.432Z,100551.34
2019-03-01T04:20:31.159Z,100548.63
2019-03-01T04:23:00.841Z,100544.15
2019-03-01T04:25:30.638Z,100548.06
2019-03-01T04:28:00.491Z,100548.06
2019-03-01T04:30:30.329Z,100551.05
2019-03-01T04:32:59.995Z,100549.18
2019-03-01T04:35:29.759Z,100548.13
2019-03-01T04:37:59.452Z,100548.11
2019-03-01T04:40:29.150Z,100550.20
2019-03-01T04:42:58.848Z,100548.17
2019-03-01T04:45:28.647Z,100548.17
2019-03-01T04:47:58.396Z,100557.02
2019-03-01T04:50:28.383Z,100556.78
2019-03-01T04:52:58.302Z,100552.86
2019-03-01T04:55:28.416Z,100555.47
2019-03-01T04:57:58.104Z,100559.00
2019-03-01T05:00:27.793Z,100557.23
2019-03-01T05:02:57.639Z,100559.11
2019-03-01T05:05:27.598Z,100557.91
2019-03-01T05:07:57.292Z,100553.61
2019-03-01T05:10:27.022Z,100553.91
2019-03-01T05:12:57.726Z,100556.27
2019-03-01T05:15:27.448Z,100555.14
2019-03-01T05:17:57.143Z,100552.53
2019-03-01T05:20:26.846Z,100558.21
2019-03-01T05:22:56.548Z,100558.21
2019-03-01T05:25:26.252Z,100554.69
2019-03-01T05:27:56.209Z,100563.35
2019-03-01T05:30:25.987Z,100560.74
2019-03-01T05:32:55.920Z,100565.11
2019-03-01T05:35:25.666Z,100565.96
2019-03-01T05:37:55.522Z,100566.88
2019-03-01T05:40:25.387Z,100573.39
2019-03-01T05:42:55.062Z,100578.61
2019-03-01T05:45:24.801Z,100575.65
2019-03-01T05:47:54.544Z,100579.45
2019-03-01T05:50:24.262Z,100577.69
2019-03-01T05:52:54.202Z,100579.56
2019-03-01T05:55:24.043Z,100583.93
2019-03-01T05:58:23.784Z,100597.81
2019-03-01T06:00:53.679Z,100597.81
2019-03-01T06:04:04.977Z,100598.77
2019-03-01T06:06:59.466Z,100595.66
2019-03-01T06:09:42.486Z,100598.27
2019-03-01T06:12:44.334Z,100601.38
2019-03-01T06:16:13.520Z,100595.03
2019-03-01T06:19:06.952Z,100598.09
2019-03-01T06:22:07.523Z,100596.55
2019-03-01T06:25:04.651Z,100601.20
2019-03-01T06:27:51.538Z,100603.27
2019-03-01T06:30:51.930Z,100606.05
2019-03-01T06:34:09.477Z,100611.08
2019-03-01T06:37:18.350Z,100613.97
2019-03-01T06:40:23.058Z,100610.27
2019-03-01T06:43:04.172Z,100616.95
2019-03-01T06:45:45.823Z,100629.05
2019-03-01T06:48:25.172Z,100630.73
2019-03-01T06:50:59.642Z,100638.27
2019-03-01T06:53:29.397Z,100641.27
2019-03-01T06:56:01.736Z,100648.80
2019-03-01T06:58:36.923Z,100657.44
2019-03-01T07:01:10.680Z,100658.38
2019-03-01T07:03:46.859Z,100656.23
2019-03-01T07:06:21.542Z,100662.94
2019-03-01T07:08:51.262Z,100663.22
2019-03-01T07:11:21.214Z,100671.84
2019-03-01T07:13:50.930Z,100676.44
2019-03-01T07:16:21.096Z,100679.78
2019-03-01T07:18:50.786Z,100686.11
2019-03-01T07:21:20.496Z,100686.73
2019-03-01T07:23:50.163Z,100690.38
2019-03-01T07:26:19.977Z,100692.05
2019-03-01T07:28:49.924Z,100697.81
2019-03-01T07:31:19.590Z,100695.59
2019-03-01T07:33:49.298Z,100689.64
2019-03-01T07:36:19.009Z,100697.64
2019-03-01T07:38:48.766Z,100705.91
2019-03-01T07:41:18.456Z,100700.89
2019-03-01T07:43:48.505Z,100706.20
2019-03-01T07:46:18.319Z,100706.01
2019-03-01T07:48:48.281Z,100712.91
2019-03-01T07:51:18.009Z,100719.88
2019-03-01T07:53:47.694Z,100723.69
2019-03-01T07:56:17.415Z,100725.91
2019-03-01T07:58:47.334Z,100732.42
2019-03-01T08:01:17.128Z,100724.80
2019-03-01T08:03:52.264Z,100732.45
2019-03-01T08:06:18.473Z,100737.17
2019-03-01T08:08:48.387Z,100739.88
2019-03-01T08:11:18.177Z,100748.90
2019-03-01T08:13:49.395Z,100751.11
2019-03-01T08:16:21.501Z,100755.97
2019-03-01T08:18:52.226Z,100758.24
2019-03-01T08:21:21.994Z,100760.30
2019-03-01T08:23:51.672Z,100766.19
2019-03-01T08:26:21.355Z,100771.56
2019-03-01T08:28:51.089Z,100778.48
2019-03-01T08:31:21.205Z,100784.25
2019-03-01T08:33:52.000Z,100785.94
2019-03-01T08:36:21.749Z,100785.52
2019-03-01T08:38:51.693Z,100794.42
2019-03-01T08:41:24.666Z,100799.27
2019-03-01T08:43:52.998Z,100801.48
2019-03-01T08:46:22.661Z,100805.47
2019-03-01T08:48:52.469Z,100813.15
2019-03-01T08:51:22.661Z,100821.89
2019-03-01T08:53:53.600Z,100828.86
2019-03-01T08:56:26.094Z,100838.38
2019-03-01T08:58:54.670Z,100842.40
2019-03-01T09:01:24.564Z,100842.93
2019-03-01T09:04:00.288Z,100846.35
2019-03-01T09:06:30.267Z,100850.02
2019-03-01T09:09:01.389Z,100854.07
2019-03-01T09:11:32.920Z,100854.07
2019-03-01T09:14:02.992Z,100860.45
2019-03-01T09:16:32.736Z,100873.34
2019-03-01T09:19:02.530Z,100876.23
2019-03-01T09:21:32.361Z,100883.05
2019-03-01T09:24:02.027Z,100877.04
2019-03-01T09:26:31.695Z,100890.38
2019-03-01T09:29:01.379Z,100891.44
2019-03-01T09:31:31.370Z,100898.08
2019-03-01T09:34:01.115Z,100899.53
2019-03-01T09:36:40.576Z,100905.06
2019-03-01T09:39:10.597Z,100908.06
2019-03-01T09:41:41.531Z,100909.73
2019-03-01T09:44:11.353Z,100916.36
2019-03-01T09:46:41.056Z,100921.67
2019-03-01T09:49:11.148Z,100933.94
2019-03-01T09:51:43.665Z,100939.72
2019-03-01T09:54:12.274Z,100943.09
2019-03-01T09:56:42.621Z,100942.86
2019-03-01T09:59:12.341Z,100936.19
2019-03-01T10:01:41.993Z,100944.75
2019-03-01T10:04:11.893Z,100944.48
2019-03-01T10:06:41.593Z,100951.30
2019-03-01T10:09:11.985Z,100958.16
2019-03-01T10:11:41.998Z,100962.00
2019-03-01T10:14:11.737Z,100964.01
2019-03-01T10:16:41.491Z,100969.31
2019-03-01T10:19:11.334Z,100973.60
2019-03-01T10:21:41.010Z,100975.93
2019-03-01T10:24:10.709Z,100975.93
2019-03-01T10:26:40.399Z,100979.15
2019-03-01T10:29:10.308Z,100980.77
2019-03-01T10:31:40.012Z,100994.41
2019-03-01T10:34:09.664Z,100996.16
2019-03-01T10:36:39.456Z,100995.24
2019-03-01T10:39:13.943Z,101006.39
2019-03-01T10:41:43.716Z,101001.88
2019-03-01T10:44:13.393Z,101014.69
2019-03-01T10:46:43.074Z,101016.46
2019-03-01T10:49:13.720Z,101015.20
2019-03-01T10:51:43.519Z,101017.88
2019-03-01T10:54:13.233Z,101018.05
2019-03-01T10:56:42.918Z,101030.72
2019-03-01T10:59:12.605Z,101022.42
2019-03-01T11:01:42.343Z,101030.39
2019-03-01T11:04:12.280Z,101028.91
2019-03-01T11:06:41.947Z,101027.39
2019-03-01T11:09:13.866Z,101031.80
2019-03-01T11:11:43.601Z,101030.39
2019-03-01T11:14:13.515Z,101032.72
2019-03-01T11:16:43.199Z,101035.05
2019-03-01T11:19:12.920Z,101040.94
2019-03-01T11:21:42.644Z,101042.31
2019-03-01T11:24:12.431Z,101053.83
2019-03-01T11:26:42.150Z,101059.27
2019-03-01T11:29:11.810Z,101064.61
2019-03-01T11:31:41.565Z,101076.39
2019-03-01T11:34:11.288Z,101081.59
2019-03-01T11:36:42.017Z,101078.88
2019-03-01T11:39:11.950Z,101082.33
2019-03-01T11:41:41.617Z,101091.06
2019-03-01T11:44:11.379Z,101089.36
2019-03-01T11:46:42.070Z,101094.44
2019-03-01T11:49:11.767Z,101090.36
2019-03-01T11:51:42.441Z,101094.03
2019-03-01T11:54:12.378Z,101096.62
2019-03-01T11:56:42.049Z,101094.50
2019-03-01T11:59:11.742Z,101098.91
2019-03-01T12:01:41.492Z,101102.73
2019-03-01T12:04:11.192Z,101111.99
2019-03-01T12:06:40.873Z,101103.77
2019-03-01T12:09:10.983Z,101102.81
2019-03-01T12:11:40.762Z,101099.62
2019-03-01T12:14:10.440Z,101097.55
2019-03-01T12:16:40.579Z,101105.92
2019-03-01T12:19:10.289Z,101105.84
2019-03-01T12:21:40.032Z,101107.07
2019-03-01T12:24:09.877Z,101102.33
2019-03-01T12:26:39.550Z,101106.23
2019-03-01T12:29:09.314Z,101111.67
2019-03-01T12:31:39.020Z,101108.27
2019-03-01T12:34:08.694Z,101098.08
2019-03-01T12:36:38.726Z,101104.74
2019-03-01T12:39:10.022Z,101100.52
2019-03-01T12:41:41.432Z,101105.00
2019-03-01T12:44:11.172Z,101100.14
2019-03-01T12:46:40.850Z,101103.59
2019-03-01T12:49:11.597Z,101100.59
2019-03-01T12:51:41.543Z,101101.70
2019-03-01T12:54:11.396Z,101090.41
2019-03-01T12:56:41.083Z,101094.19
2019-03-01T12:59:11.572Z,101100.59
2019-03-01T13:01:41.824Z,101096.38
2019-03-01T13:04:11.538Z,101090.55
2019-03-01T13:06:41.208Z,101090.48
2019-03-01T13:09:16.048Z,101091.84
2019-03-01T13:11:48.656Z,101095.34
2019-03-01T13:14:17.521Z,101085.44
2019-03-01T13:16:47.274Z,101093.25
2019-03-01T13:19:16.951Z,101096.44
2019-03-01T13:21:49.139Z,101097.13
2019-03-01T13:24:18.355Z,101096.36
2019-03-01T13:27:00.649Z,101103.51
2019-03-01T13:29:30.633Z,101109.20
2019-03-01T13:32:00.301Z,101101.02
2019-03-01T13:34:29.967Z,101109.06
2019-03-01T13:36:59.654Z,101106.73
2019-03-01T13:39:29.320Z,101105.92
2019-03-01T13:41:59.256Z,101112.19
2019-03-01T13:44:28.922Z,101110.38
2019-03-01T13:46:58.596Z,101110.70
2019-03-01T13:49:30.409Z,101114.27
2019-03-01T13:51:59.831Z,101106.45
2019-03-01T13:54:29.866Z,101104.81
2019-03-01T13:56:59.806Z,101107.52
2019-03-01T13:59:29.500Z,101120.12
2019-03-01T14:01:59.279Z,101122.79
2019-03-01T14:04:29.003Z,101116.16
2019-03-01T14:06:58.691Z,101105.08
2019-03-01T14:09:28.614Z,101113.97
2019-03-01T14:11:59.333Z,101113.19
2019-03-01T14:14:30.258Z,101107.48
2019-03-01T14:17:00.019Z,101110.00
2019-03-01T14:19:30.071Z,101109.08
2019-03-01T14:21:59.736Z,101113.74
2019-03-01T14:24:30.332Z,101122.78
2019-03-01T14:27:01.242Z,101124.64
2019-03-01T14:29:31.020Z,101129.27
2019-03-01T14:32:00.919Z,101127.31
2019-03-01T14:34:30.826Z,101135.55
2019-03-01T14:37:01.415Z,101141.33
2019-03-01T14:39:31.193Z,101141.92
2019-03-01T14:42:00.891Z,101146.52
2019-03-01T14:44:33.865Z,101152.67
2019-03-01T14:47:03.430Z,101152.55
2019-03-01T14:49:33.129Z,101152.41
2019-03-01T14:52:02.874Z,101145.28
2019-03-01T14:54:32.587Z,101154.93
2019-03-01T14:57:09.916Z,101156.82
2019-03-01T14:59:54.964Z,101161.89
2019-03-01T15:02:30.988Z,101157.16
2019-03-01T15:05:05.481Z,101171.76
2019-03-01T15:07:33.047Z,101161.12
2019-03-01T15:10:02.985Z,101164.86
2019-03-01T15:12:33.709Z,101167.72
2019-03-01T15:15:03.600Z,101173.50
2019-03-01T15:17:33.617Z,101174.66
2019-03-01T15:20:03.358Z,101175.13
2019-03-01T15:22:33.310Z,101178.44
2019-03-01T15:25:02.976Z,101179.80
2019-03-01T15:27:32.636Z,101187.33
2019-03-01T15:30:05.638Z,101181.40
2019-03-01T15:32:36.185Z,101174.20
2019-03-01T15:35:06.358Z,101171.16
2019-03-01T15:37:36.416Z,101173.09
2019-03-01T15:40:07.379Z,101172.28
2019-03-01T15:42:37.147Z,101184.33
2019-03-01T15:45:07.799Z,101190.89
2019-03-01T15:47:37.462Z,101189.78
2019-03-01T15:50:08.878Z,101199.56
2019-03-01T15:52:38.696Z,101198.74
2019-03-01T15:55:11.829Z,101199.89
2019-03-01T15:57:41.435Z,101205.33
2019-03-01T16:00:11.376Z,101208.70
2019-03-01T16:02:41.273Z,101204.30
2019-03-01T16:05:11.332Z,101216.22
2019-03-01T16:07:40.995Z,101221.81
2019-03-01T16:10:11.177Z,101223.37
2019-03-01T16:12:40.952Z,101236.48
2019-03-01T16:15:12.008Z,101231.95
2019-03-01T16:17:41.801Z,101235.09
2019-03-01T16:20:12.837Z,101235.03
2019-03-01T16:22:42.645Z,101238.73
2019-03-01T16:25:13.197Z,101235.87
2019-03-01T16:27:42.981Z,101239.80
2019-03-01T16:30:14.550Z,101233.27
2019-03-01T16:32:49.709Z,101235.21
2019-03-01T16:35:18.468Z,101243.58
2019-03-01T16:37:49.580Z,101244.98
2019-03-01T16:40:19.835Z,101241.16
2019-03-01T16:42:54.312Z,101239.25
2019-03-01T16:45:21.998Z,101239.25
2019-03-01T16:47:51.638Z,101228.23
2019-03-01T16:50:21.659Z,101230.69
2019-03-01T16:52:51.383Z,101230.95
2019-03-01T16:55:24.487Z,101239.80
2019-03-01T16:57:54.976Z,101242.45
2019-03-01T17:00:24.253Z,101247.20
2019-03-01T17:02:53.995Z,101245.05
2019-03-01T17:05:24.001Z,101244.33
2019-03-01T17:07:53.741Z,101237.84
2019-03-01T17:10:26.434Z,101235.33
2019-03-01T17:12:55.140Z,101236.80
2019-03-01T17:15:24.908Z,101242.05
2019-03-01T17:17:54.663Z,101240.79
2019-03-01T17:20:24.348Z,101249.08
2019-03-01T17:22:54.105Z,101243.96
2019-03-01T17:25:26.725Z,101243.45
2019-03-01T17:27:55.639Z,101257.78
2019-03-01T17:30:25.788Z,101253.10
2019-03-01T17:32:55.732Z,101258.02
2019-03-01T17:35:25.518Z,101258.45
2019-03-01T17:37:55.183Z,101262.75
2019-03-01T17:40:24.881Z,101264.43
2019-03-01T17:42:56.432Z,101258.35
2019-03-01T17:45:25.945Z,101259.14
2019-03-01T17:47:55.705Z,101261.16
2019-03-01T17:50:25.601Z,101262.01
2019-03-01T17:52:55.284Z,101268.02
2019-03-01T17:55:25.045Z,101270.33
2019-03-01T17:57:54.803Z,101278.82
2019-03-01T18:00:30.541Z,101284.38
2019-03-01T18:03:00.246Z,101283.49
2019-03-01T18:05:30.006Z,101288.99
2019-03-01T18:08:03.202Z,101294.08
2019-03-01T18:10:33.045Z,101297.52
2019-03-01T18:13:02.822Z,101289.78
2019-03-01T18:15:32.564Z,101293.22
2019-03-01T18:18:02.231Z,101291.93
2019-03-01T18:20:33.887Z,101294.08
2019-03-01T18:23:04.966Z,101296.67
2019-03-01T18:25:34.823Z,101293.91
2019-03-01T18:28:05.493Z,101295.52
2019-03-01T18:30:35.296Z,101299.91
2019-03-01T18:33:05.127Z,101294.42
2019-03-01T18:35:34.951Z,101293.91
2019-03-01T18:38:05.170Z,101289.68
2019-03-01T18:40:34.834Z,101298.86
2019-03-01T18:43:05.039Z,101297.55
2019-03-01T18:45:34.783Z,101299.70
2019-03-01T18:48:08.695Z,101295.30
2019-03-01T18:50:36.665Z,101302.51
2019-03-01T18:53:06.400Z,101298.92
2019-03-01T18:55:36.170Z,101298.13
2019-03-01T18:58:06.115Z,101306.86
2019-03-01T19:00:37.088Z,101302.97
2019-03-01T19:03:06.952Z,101306.48
2019-03-01T19:05:40.032Z,101304.91
2019-03-01T19:08:08.776Z,101308.16
2019-03-01T19:10:38.609Z,101308.16
2019-03-01T19:13:08.376Z,101313.06
2019-03-01T19:15:38.319Z,101310.60
2019-03-01T19:18:08.070Z,101313.30
2019-03-01T19:20:41.580Z,101322.84
2019-03-01T19:23:10.329Z,101310.26
2019-03-01T19:25:40.150Z,101312.57
2019-03-01T19:28:09.911Z,101319.77
2019-03-01T19:30:40.563Z,101307.73
2019-03-01T19:33:10.308Z,101318.10
2019-03-01T19:35:40.047Z,101312.98
2019-03-01T19:38:09.821Z,101322.05
2019-03-01T19:40:39.540Z,101308.62
2019-03-01T19:43:10.267Z,101306.94
2019-03-01T19:45:41.826Z,101307.32
2019-03-01T19:48:11.568Z,101307.73
2019-03-01T19:50:41.260Z,101309.88
2019-03-01T19:53:10.965Z,101307.60
2019-03-01T19:55:40.640Z,101311.84
2019-03-01T19:58:12.779Z,101322.20
2019-03-01T20:00:43.552Z,101312.69
2019-03-01T20:03:13.215Z,101313.85
2019-03-01T20:05:42.953Z,101318.53
2019-03-01T20:08:12.654Z,101315.56
2019-03-01T20:10:42.396Z,101317.74
2019-03-01T20:13:16.449Z,101316.45
2019-03-01T20:15:46.041Z,101315.22
2019-03-01T20:18:16.182Z,101311.39
2019-03-01T20:20:45.948Z,101321.25
2019-03-01T20:23:15.619Z,101321.70
2019-03-01T20:25:47.483Z,101331.18
2019-03-01T20:28:16.945Z,101326.44
2019-03-01T20:30:46.895Z,101335.58
2019-03-01T20:33:16.575Z,101327.83
2019-03-01T20:35:46.512Z,101334.31
2019-03-01T20:38:17.052Z,101330.05
2019-03-01T20:40:46.868Z,101329.25
2019-03-01T20:43:16.553Z,101331.72
2019-03-01T20:45:46.558Z,101332.13
2019-03-01T20:48:16.293Z,101331.34
2019-03-01T20:50:47.619Z,101335.23
2019-03-01T20:53:17.578Z,101334.31
2019-03-01T20:55:47.227Z,101339.12
2019-03-01T20:58:17.016Z,101340.06
2019-03-01T21:00:46.725Z,101339.69
2019-03-01T21:03:16.413Z,101336.24
2019-03-01T21:05:46.115Z,101343.11
2019-03-01T21:08:15.852Z,101348.77
2019-03-01T21:10:46.855Z,101345.77
2019-03-01T21:13:16.990Z,101348.48
2019-03-01T21:15:46.696Z,101345.03
2019-03-01T21:18:16.382Z,101345.92
2019-03-01T21:20:46.076Z,101349.87
2019-03-01T21:23:15.948Z,101344.25
2019-03-01T21:25:45.623Z,101353.59
2019-03-01T21:28:15.415Z,101345.54
2019-03-01T21:30:45.677Z,101345.92
2019-03-01T21:33:15.939Z,101344.75
2019-03-01T21:35:47.765Z,101341.87
2019-03-01T21:38:17.351Z,101338.49
2019-03-01T21:40:47.593Z,101338.42
2019-03-01T21:43:18.225Z,101342.73
2019-03-01T21:45:48.291Z,101342.31
2019-03-01T21:48:18.675Z,101340.58
2019-03-01T21:50:48.425Z,101332.02
2019-03-01T21:53:18.119Z,101330.59
2019-03-01T21:55:47.912Z,101331.80
2019-03-01T21:58:17.585Z,101330.43
2019-03-01T22:00:47.377Z,101334.22
2019-03-01T22:03:17.226Z,101339.72
2019-03-01T22:05:48.589Z,101334.95
2019-03-01T22:08:18.262Z,101341.94
2019-03-01T22:10:48.020Z,101338.62
2019-03-01T22:13:17.796Z,101333.94
2019-03-01T22:15:47.499Z,101335.17
2019-03-01T22:18:20.369Z,101335.02
2019-03-01T22:20:49.135Z,101332.64
2019-03-01T22:23:19.054Z,101328.81
2019-03-01T22:25:48.752Z,101331.84
2019-03-01T22:28:18.521Z,101334.31
2019-03-01T22:30:48.184Z,101338.11
2019-03-01T22:33:20.864Z,101335.52
2019-03-01T22:35:49.323Z,101337.16
2019-03-01T22:38:19.243Z,101339.68
2019-03-01T22:40:48.913Z,101329.69
2019-03-01T22:43:18.635Z,101344.36
2019-03-01T22:45:48.919Z,101344.36
2019-03-01T22:48:18.688Z,101344.93
2019-03-01T22:50:48.371Z,101343.80
2019-03-01T22:53:18.096Z,101346.89
2019-03-01T22:55:47.932Z,101340.06
2019-03-01T22:58:17.585Z,101344.63
2019-03-01T23:01:07.287Z,101349.94
2019-03-01T23:03:38.662Z,101345.48
2019-03-01T23:06:11.656Z,101342.98
2019-03-01T23:08:39.946Z,101347.88
2019-03-01T23:11:09.692Z,101349.17
2019-03-01T23:13:39.363Z,101344.97
2019-03-01T23:16:09.275Z,101350.59
2019-03-01T23:18:40.452Z,101344.62
2019-03-01T23:21:11.186Z,101344.97
2019-03-01T23:23:41.092Z,101340.29
2019-03-01T23:26:10.767Z,101336.84
2019-03-01T23:28:40.940Z,101337.35
2019-03-01T23:31:12.225Z,101335.86
2019-03-01T23:33:41.913Z,101324.61
2019-03-01T23:36:12.926Z,101327.58
2019-03-01T23:38:42.571Z,101330.59
2019-03-01T23:41:12.703Z,101317.69
2019-03-01T23:43:42.493Z,101317.63
2019-03-01T23:46:12.316Z,101322.69
2019-03-01T23:48:45.524Z,101313.11
2019-03-01T23:51:14.488Z,101321.58
2019-03-01T23:53:44.469Z,101316.27
2019-03-01T23:56:14.171Z,101314.60
2019-03-01T23:58:44.143Z,101310.27
